Time;durP1;ratioP1;P1;durP2;ratioP2;P2;SDS_P1;SDS_P2;PMS_P1;PMS_P2;Temp;Humidity;BMP_temperature;BMP_pressure;BME280_temperature;BME280_humidity;BME280_pressure;Samples;Min_cycle;Max_cycle;Signal;HPM_P1;HPM_P2
2021/06/11 00:00:01;;;;;;;7.40;6.68;;;20.00;92.80;;;;;;5049070;28;20124;-80
2021/06/11 00:02:26;;;;;;;8.20;7.00;;;20.00;92.80;;;;;;5049209;28;20312;-80
2021/06/11 00:04:52;;;;;;;9.20;7.10;;;20.00;92.80;;;;;;5048199;28;20114;-82
2021/06/11 00:07:17;;;;;;;7.18;5.90;;;20.00;92.80;;;;;;5055752;28;20354;-81
2021/06/11 00:09:43;;;;;;;8.32;6.68;;;20.00;92.80;;;;;;5045610;28;20037;-82
2021/06/11 00:12:09;;;;;;;11.20;7.22;;;20.00;92.70;;;;;;5035858;28;20038;-81
2021/06/11 00:14:35;;;;;;;7.90;6.78;;;20.00;92.60;;;;;;5038247;28;20053;-81
2021/06/11 00:17:00;;;;;;;8.07;6.72;;;19.90;92.60;;;;;;5035130;28;20037;-81
2021/06/11 00:19:26;;;;;;;8.98;7.55;;;19.90;92.70;;;;;;5035707;28;20056;-80
2021/06/11 00:21:51;;;;;;;9.45;7.72;;;19.80;92.80;;;;;;5039159;28;20384;-81
2021/06/11 00:24:17;;;;;;;8.65;7.40;;;19.80;92.80;;;;;;5047339;28;20052;-80
2021/06/11 00:26:42;;;;;;;9.75;7.78;;;19.80;92.80;;;;;;5049482;28;20073;-81
2021/06/11 00:29:08;;;;;;;11.25;8.65;;;19.80;92.80;;;;;;5046607;28;20412;-80
2021/06/11 00:31:33;;;;;;;9.63;7.55;;;19.80;92.90;;;;;;5046248;28;20037;-81
2021/06/11 00:33:59;;;;;;;8.30;6.75;;;19.70;92.80;;;;;;5046593;28;20410;-81
2021/06/11 00:36:24;;;;;;;23.58;8.07;;;19.80;92.90;;;;;;5057452;28;20037;-81
2021/06/11 00:38:50;;;;;;;9.43;7.25;;;19.80;92.90;;;;;;5043597;28;20095;-81
2021/06/11 00:41:15;;;;;;;9.25;7.68;;;19.70;93.00;;;;;;5057476;28;20083;-81
2021/06/11 00:43:41;;;;;;;9.05;6.82;;;19.70;92.90;;;;;;5058881;28;20044;-81
2021/06/11 00:46:06;;;;;;;12.32;7.80;;;19.70;93.00;;;;;;5056608;28;20373;-81
2021/06/11 00:48:32;;;;;;;8.27;7.30;;;19.70;93.00;;;;;;5057610;28;20418;-80
2021/06/11 00:50:57;;;;;;;9.77;7.95;;;19.60;93.00;;;;;;5046464;28;20391;-82
2021/06/11 00:53:23;;;;;;;8.63;7.72;;;19.60;93.00;;;;;;5047194;28;20081;-81
2021/06/11 00:55:50;;;;;;;11.20;7.97;;;19.60;93.10;;;;;;5049916;28;20410;-81
2021/06/11 00:58:16;;;;;;;10.63;8.77;;;19.50;93.20;;;;;;5047098;28;20327;-81
2021/06/11 01:00:42;;;;;;;10.50;8.38;;;19.50;93.20;;;;;;5041885;28;20033;-80
2021/06/11 01:03:09;;;;;;;12.70;9.18;;;19.50;93.20;;;;;;5046841;28;20068;-81
2021/06/11 01:05:35;;;;;;;12.40;8.23;;;19.40;93.20;;;;;;5054796;28;20040;-81
2021/06/11 01:08:03;;;;;;;12.35;8.45;;;19.40;93.30;;;;;;5051208;28;20203;-81
2021/06/11 01:10:29;;;;;;;10.70;8.30;;;19.40;93.40;;;;;;5056782;28;20363;-80
2021/06/11 01:12:56;;;;;;;9.48;8.38;;;19.40;93.40;;;;;;5047274;28;20037;-80
2021/06/11 01:15:22;;;;;;;9.77;8.77;;;19.40;93.50;;;;;;5049158;28;20049;-80
2021/06/11 01:17:52;;;;;;;8.80;7.80;;;19.40;93.50;;;;;;5049400;28;20052;-80
2021/06/11 01:20:20;;;;;;;10.98;8.93;;;19.40;93.50;;;;;;5053059;28;20141;-80
2021/06/11 01:22:53;;;;;;;9.77;8.35;;;19.40;93.50;;;;;;5042566;28;20095;-80
2021/06/11 01:25:32;;;;;;;9.35;8.07;;;19.30;93.50;;;;;;5046009;28;20033;-81
2021/06/11 01:27:58;;;;;;;13.38;8.63;;;19.30;93.70;;;;;;5052347;28;20338;-81
2021/06/11 01:30:25;;;;;;;11.30;9.15;;;19.30;93.70;;;;;;5048397;28;20033;-81
2021/06/11 01:32:55;;;;;;;9.57;8.52;;;19.30;93.70;;;;;;5042193;28;20033;-81
2021/06/11 01:35:33;;;;;;;10.00;8.88;;;19.30;93.80;;;;;;5044208;28;20033;-81
2021/06/11 01:38:02;;;;;;;10.50;8.82;;;19.20;93.80;;;;;;5041395;28;20044;-80
2021/06/11 01:40:30;;;;;;;9.35;7.68;;;19.20;93.80;;;;;;5049946;28;20068;-80
2021/06/11 01:42:59;;;;;;;12.02;8.73;;;19.20;93.80;;;;;;5054680;28;20041;-81
2021/06/11 01:45:24;;;;;;;9.40;8.35;;;19.20;93.80;;;;;;5047566;28;20037;-80
2021/06/11 01:47:52;;;;;;;9.75;8.32;;;19.20;93.90;;;;;;5041430;28;20033;-80
2021/06/11 01:50:22;;;;;;;10.85;8.95;;;19.20;93.80;;;;;;5047221;28;20376;-80
2021/06/11 01:52:50;;;;;;;10.77;8.30;;;19.20;93.90;;;;;;5048646;28;20036;-81
2021/06/11 01:55:16;;;;;;;11.13;8.35;;;19.20;93.80;;;;;;5049482;28;20056;-80
2021/06/11 01:57:42;;;;;;;13.38;9.07;;;19.20;93.80;;;;;;5047285;28;20343;-80
2021/06/11 02:00:08;;;;;;;11.10;8.60;;;19.10;93.80;;;;;;5045661;28;20068;-80
2021/06/11 02:02:35;;;;;;;10.23;8.73;;;19.10;93.90;;;;;;5048129;28;20037;-81
2021/06/11 02:05:04;;;;;;;11.95;9.38;;;19.10;93.90;;;;;;5046664;28;20045;-80
2021/06/11 02:07:30;;;;;;;12.13;9.00;;;19.10;94.00;;;;;;5047600;28;20044;-81
2021/06/11 02:09:58;;;;;;;13.25;9.18;;;19.10;94.00;;;;;;5047831;28;20120;-80
2021/06/11 02:12:23;;;;;;;10.18;8.48;;;19.00;93.90;;;;;;5042795;28;20072;-81
2021/06/11 02:14:49;;;;;;;11.95;8.95;;;19.00;93.90;;;;;;5044790;28;20091;-80
2021/06/11 02:17:15;;;;;;;10.25;8.43;;;19.00;93.80;;;;;;5050448;28;20049;-80
2021/06/11 02:19:41;;;;;;;12.57;9.13;;;19.10;93.90;;;;;;5043429;28;20156;-80
2021/06/11 02:22:08;;;;;;;11.10;9.90;;;19.10;94.10;;;;;;5046010;28;20048;-80
2021/06/11 02:24:34;;;;;;;10.40;9.30;;;19.10;93.80;;;;;;5043836;28;20052;-80
2021/06/11 02:27:01;;;;;;;10.43;9.30;;;19.00;93.80;;;;;;5055160;28;20045;-80
2021/06/11 02:29:27;;;;;;;10.18;8.20;;;19.10;93.80;;;;;;5047944;28;20057;-80
2021/06/11 02:31:53;;;;;;;12.00;9.38;;;19.00;93.60;;;;;;5048593;28;20107;-80
2021/06/11 02:34:18;;;;;;;12.82;9.15;;;19.10;93.70;;;;;;5045740;28;20087;-79
2021/06/11 02:36:44;;;;;;;14.10;9.27;;;19.10;93.70;;;;;;5046488;28;20135;-80
2021/06/11 02:39:09;;;;;;;14.32;8.32;;;19.10;93.70;;;;;;5047775;28;20040;-79
2021/06/11 02:41:44;;;;;;;13.05;9.10;;;19.10;93.70;;;;;;5038079;28;20156;-79
2021/06/11 02:44:11;;;;;;;29.65;9.10;;;19.10;93.60;;;;;;5051181;28;20057;-80
2021/06/11 02:46:46;;;;;;;11.85;8.88;;;19.10;93.70;;;;;;5050172;28;20044;-81
2021/06/11 02:49:20;;;;;;;10.70;9.10;;;19.00;93.70;;;;;;5040976;28;20050;-81
2021/06/11 02:51:49;;;;;;;11.13;8.10;;;19.10;93.70;;;;;;5049555;28;20037;-82
2021/06/11 02:54:22;;;;;;;14.48;9.10;;;19.10;93.70;;;;;;5045598;28;20079;-81
2021/06/11 02:57:04;;;;;;;15.82;9.98;;;19.00;93.70;;;;;;5039901;28;20028;-82
2021/06/11 02:59:38;;;;;;;11.95;8.63;;;19.10;93.70;;;;;;5045066;28;20037;-80
2021/06/11 03:02:08;;;;;;;12.32;7.55;;;19.00;93.70;;;;;;5039191;28;20033;-80
2021/06/11 03:04:36;;;;;;;8.95;7.57;;;19.00;93.60;;;;;;5041959;28;20045;-81
2021/06/11 03:07:03;;;;;;;14.27;9.18;;;19.10;93.70;;;;;;5045462;28;20037;-82
2021/06/11 03:09:30;;;;;;;10.75;9.25;;;19.10;93.60;;;;;;5047340;28;20136;-82
2021/06/11 03:11:57;;;;;;;11.60;8.85;;;19.10;93.70;;;;;;5045019;28;20086;-81
2021/06/11 03:14:26;;;;;;;10.35;8.95;;;19.10;93.70;;;;;;5040697;28;20049;-81
2021/06/11 03:16:59;;;;;;;14.95;9.23;;;19.10;93.70;;;;;;5045987;28;20032;-81
2021/06/11 03:19:29;;;;;;;8.95;8.05;;;19.00;93.60;;;;;;5050991;28;20060;-81
2021/06/11 03:22:00;;;;;;;15.63;8.43;;;19.00;93.60;;;;;;5044685;28;20044;-81
2021/06/11 03:24:52;;;;;;;11.77;8.55;;;19.00;93.70;;;;;;5043213;28;20046;-81
2021/06/11 03:27:24;;;;;;;18.02;8.55;;;19.00;93.70;;;;;;5041923;28;20034;-81
2021/06/11 03:29:55;;;;;;;11.27;9.45;;;19.00;93.70;;;;;;5055318;28;20098;-81
2021/06/11 03:32:31;;;;;;;11.45;8.55;;;18.90;93.70;;;;;;5047707;28;20056;-80
2021/06/11 03:35:01;;;;;;;12.65;9.18;;;18.90;93.80;;;;;;5056688;28;20050;-80
2021/06/11 03:37:29;;;;;;;13.68;9.13;;;18.90;93.80;;;;;;5047394;28;20048;-80
2021/06/11 03:40:01;;;;;;;12.07;9.50;;;18.90;93.90;;;;;;5041792;28;20040;-80
2021/06/11 03:42:28;;;;;;;11.75;8.63;;;18.90;93.90;;;;;;5045354;28;20068;-79
2021/06/11 03:44:56;;;;;;;10.63;9.25;;;18.90;93.90;;;;;;5046564;28;20065;-80
2021/06/11 03:47:25;;;;;;;11.93;8.57;;;19.00;93.70;;;;;;5042957;28;20056;-81
2021/06/11 03:49:54;;;;;;;10.05;9.05;;;19.00;93.60;;;;;;5046741;28;20033;-80
2021/06/11 03:52:26;;;;;;;10.55;7.95;;;19.00;93.70;;;;;;5050577;28;20048;-80
2021/06/11 03:54:55;;;;;;;8.70;7.80;;;19.00;93.70;;;;;;5048746;28;20127;-80
2021/06/11 03:57:22;;;;;;;10.98;8.90;;;19.00;93.60;;;;;;5056004;28;20106;-80
2021/06/11 03:59:49;;;;;;;12.68;9.45;;;19.00;93.50;;;;;;5052115;28;20049;-81
2021/06/11 04:02:15;;;;;;;14.25;9.57;;;19.00;93.60;;;;;;5049060;28;20095;-81
2021/06/11 04:04:41;;;;;;;9.77;8.77;;;19.00;93.50;;;;;;5049613;28;20712;-81
2021/06/11 04:07:22;;;;;;;14.35;8.77;;;19.10;93.50;;;;;;5043022;28;20124;-81
2021/06/11 04:09:50;;;;;;;10.13;8.65;;;19.10;93.40;;;;;;5039755;28;20685;-81
2021/06/11 04:12:32;;;;;;;10.25;8.60;;;19.20;93.40;;;;;;5046206;28;20045;-82
2021/06/11 04:15:00;;;;;;;16.88;8.80;;;19.20;93.20;;;;;;5041052;28;20041;-81
2021/06/11 04:17:30;;;;;;;11.57;9.23;;;19.30;93.30;;;;;;5042696;28;20060;-82
2021/06/11 04:19:57;;;;;;;9.20;8.15;;;19.30;93.20;;;;;;5041758;28;20052;-82
2021/06/11 04:22:27;;;;;;;13.73;8.45;;;19.40;92.90;;;;;;5036683;28;20052;-82
2021/06/11 04:24:54;;;;;;;14.77;8.60;;;19.40;92.90;;;;;;5035753;28;20053;-79
2021/06/11 04:27:21;;;;;;;10.63;8.15;;;19.40;92.90;;;;;;5035773;28;20036;-80
2021/06/11 04:29:48;;;;;;;10.65;8.20;;;19.50;92.80;;;;;;5054935;28;20341;-80
2021/06/11 04:32:14;;;;;;;14.00;8.27;;;19.50;92.80;;;;;;5044682;28;20041;-80
2021/06/11 04:34:40;;;;;;;10.02;8.45;;;19.50;92.70;;;;;;5042494;28;20096;-80
2021/06/11 04:37:05;;;;;;;9.68;8.68;;;19.60;92.50;;;;;;5043664;28;20053;-81
2021/06/11 04:39:31;;;;;;;11.00;7.90;;;19.60;92.70;;;;;;5047253;28;20615;-81
2021/06/11 04:41:56;;;;;;;10.55;8.45;;;19.60;92.50;;;;;;5046971;28;20040;-80
2021/06/11 04:44:23;;;;;;;10.38;8.80;;;19.60;92.50;;;;;;5048854;28;20051;-81
2021/06/11 04:46:49;;;;;;;8.00;6.70;;;19.60;92.20;;;;;;5035722;28;20295;-81
2021/06/11 04:49:14;;;;;;;9.88;8.38;;;19.60;92.30;;;;;;5047560;28;20142;-80
2021/06/11 04:51:40;;;;;;;10.88;8.45;;;19.70;92.30;;;;;;5034134;28;20041;-81
2021/06/11 04:54:06;;;;;;;12.40;8.73;;;19.70;92.20;;;;;;5044433;28;20436;-81
2021/06/11 04:56:34;;;;;;;13.52;8.60;;;19.70;92.30;;;;;;5037372;28;20168;-81
2021/06/11 04:59:01;;;;;;;12.13;8.30;;;19.70;92.20;;;;;;5052698;28;20331;-81
2021/06/11 05:01:27;;;;;;;10.23;7.97;;;19.70;92.10;;;;;;5055714;28;20076;-81
2021/06/11 05:03:52;;;;;;;8.65;7.18;;;19.70;91.90;;;;;;5047209;28;20041;-81
2021/06/11 05:06:18;;;;;;;11.00;7.30;;;19.70;91.80;;;;;;5034610;28;20043;-80
2021/06/11 05:08:45;;;;;;;9.32;7.55;;;19.80;91.60;;;;;;5044167;28;20041;-81
2021/06/11 05:11:10;;;;;;;8.75;7.45;;;19.80;91.50;;;;;;5053209;28;20088;-80
2021/06/11 05:13:36;;;;;;;8.77;6.93;;;19.80;91.50;;;;;;5046171;28;20687;-80
2021/06/11 05:16:02;;;;;;;11.32;8.00;;;19.80;90.80;;;;;;5051779;28;20345;-80
2021/06/11 05:18:29;;;;;;;7.63;6.38;;;19.80;90.40;;;;;;5037827;28;20044;-81
2021/06/11 05:20:55;;;;;;;10.20;6.50;;;19.80;90.00;;;;;;5039715;28;20037;-80
2021/06/11 05:23:21;;;;;;;10.90;6.32;;;19.80;90.20;;;;;;5041082;28;20481;-81
2021/06/11 05:25:48;;;;;;;9.45;6.85;;;19.90;90.30;;;;;;5056749;28;20033;-82
2021/06/11 05:28:14;;;;;;;6.25;5.65;;;20.00;90.10;;;;;;5055704;28;20072;-80
2021/06/11 05:30:40;;;;;;;7.75;6.80;;;20.00;90.00;;;;;;5055874;28;20396;-81
2021/06/11 05:33:05;;;;;;;7.55;6.43;;;20.00;89.90;;;;;;5047396;28;20045;-80
2021/06/11 05:35:32;;;;;;;8.23;6.32;;;20.10;89.20;;;;;;5040156;28;20036;-80
2021/06/11 05:38:00;;;;;;;6.68;5.63;;;20.10;88.90;;;;;;5045282;28;20045;-81
2021/06/11 05:40:26;;;;;;;8.20;5.35;;;20.10;88.10;;;;;;5055617;28;20068;-80
2021/06/11 05:42:52;;;;;;;8.05;6.05;;;20.10;88.50;;;;;;5054993;28;20442;-81
2021/06/11 05:45:17;;;;;;;5.97;5.18;;;20.20;88.70;;;;;;5056549;28;20396;-81
2021/06/11 05:47:43;;;;;;;8.77;6.40;;;20.20;88.30;;;;;;5054872;28;20041;-82
2021/06/11 05:50:09;;;;;;;10.48;5.82;;;20.30;87.90;;;;;;5053610;28;20041;-82
2021/06/11 05:52:35;;;;;;;15.18;6.00;;;20.30;87.90;;;;;;5054220;28;20048;-81
2021/06/11 05:55:04;;;;;;;5.20;4.70;;;20.30;87.60;;;;;;5051853;28;20040;-80
2021/06/11 05:57:30;;;;;;;7.28;5.28;;;20.30;86.70;;;;;;5054895;28;20037;-80
2021/06/11 05:59:57;;;;;;;6.10;5.10;;;20.40;85.90;;;;;;5053167;28;20037;-80
2021/06/11 06:02:22;;;;;;;9.15;5.32;;;20.40;87.10;;;;;;5045255;28;20072;-81
2021/06/11 06:04:49;;;;;;;7.57;5.63;;;20.50;86.40;;;;;;5054516;28;20381;-80
2021/06/11 06:07:15;;;;;;;11.15;5.20;;;20.50;86.00;;;;;;5054797;28;20045;-81
2021/06/11 06:09:41;;;;;;;9.27;5.90;;;20.50;86.50;;;;;;5054994;28;20083;-81
2021/06/11 06:12:07;;;;;;;9.25;6.10;;;20.50;86.80;;;;;;5049817;28;20753;-81
2021/06/11 06:14:33;;;;;;;6.22;4.60;;;20.60;86.50;;;;;;5045239;28;20460;-81
2021/06/11 06:16:59;;;;;;;7.32;5.82;;;20.70;87.10;;;;;;5036629;28;20068;-81
2021/06/11 06:19:24;;;;;;;13.45;6.47;;;20.80;85.80;;;;;;5050048;28;20072;-82
2021/06/11 06:21:51;;;;;;;11.93;6.32;;;21.00;85.30;;;;;;5054488;28;20047;-82
2021/06/11 06:24:17;;;;;;;9.85;7.25;;;21.10;85.70;;;;;;5044642;28;20041;-82
2021/06/11 06:26:42;;;;;;;9.63;6.60;;;21.20;85.20;;;;;;5050800;28;20103;-82
2021/06/11 06:29:08;;;;;;;11.48;6.60;;;21.30;85.90;;;;;;5049759;28;20060;-80
2021/06/11 06:31:33;;;;;;;8.45;6.15;;;21.40;84.70;;;;;;5051898;28;20423;-80
2021/06/11 06:33:59;;;;;;;6.93;5.72;;;21.50;84.00;;;;;;5050852;28;20064;-80
2021/06/11 06:36:25;;;;;;;9.68;6.68;;;21.50;84.10;;;;;;5055848;28;20045;-81
2021/06/11 06:38:52;;;;;;;13.05;7.68;;;21.60;84.50;;;;;;5057017;28;20104;-81
2021/06/11 06:41:18;;;;;;;11.73;7.65;;;21.60;84.10;;;;;;5058169;28;20442;-83
2021/06/11 06:43:44;;;;;;;12.10;7.35;;;21.50;84.00;;;;;;5047236;28;20041;-82
2021/06/11 06:46:11;;;;;;;12.05;6.78;;;21.50;85.30;;;;;;5045731;28;20062;-82
2021/06/11 06:48:37;;;;;;;10.27;7.65;;;21.60;85.10;;;;;;5050067;28;20044;-82
2021/06/11 06:51:03;;;;;;;14.63;7.57;;;21.70;84.60;;;;;;5052995;28;20037;-82
2021/06/11 06:53:29;;;;;;;10.68;7.63;;;21.80;84.70;;;;;;5050061;28;20032;-83
2021/06/11 06:55:54;;;;;;;15.13;8.18;;;21.80;84.60;;;;;;5047975;28;20069;-82
2021/06/11 06:58:20;;;;;;;11.48;8.68;;;21.90;83.50;;;;;;5047638;28;20102;-82
2021/06/11 07:00:45;;;;;;;12.00;7.35;;;21.90;83.40;;;;;;5050996;28;20047;-81
2021/06/11 07:03:11;;;;;;;11.38;8.00;;;22.00;84.20;;;;;;5044276;28;20210;-82
2021/06/11 07:05:37;;;;;;;12.05;7.95;;;22.10;84.00;;;;;;5038587;28;20146;-82
2021/06/11 07:08:03;;;;;;;9.55;8.55;;;22.10;83.80;;;;;;5038531;28;20796;-82
2021/06/11 07:10:28;;;;;;;9.93;8.25;;;22.30;84.20;;;;;;5044526;28;20075;-83
2021/06/11 07:12:55;;;;;;;10.82;8.57;;;22.40;84.40;;;;;;5045537;28;20514;-82
2021/06/11 07:15:20;;;;;;;9.32;7.88;;;22.50;83.20;;;;;;5050632;28;20123;-83
2021/06/11 07:17:46;;;;;;;8.50;7.70;;;22.60;83.50;;;;;;5044071;28;20416;-82
2021/06/11 07:20:12;;;;;;;12.27;8.98;;;22.80;83.30;;;;;;5041966;28;20098;-82
2021/06/11 07:22:38;;;;;;;8.57;7.75;;;22.90;82.50;;;;;;5041691;28;20079;-82
2021/06/11 07:25:06;;;;;;;9.27;7.00;;;23.10;82.20;;;;;;5035408;28;20690;-82
2021/06/11 07:27:33;;;;;;;10.10;7.70;;;23.20;82.60;;;;;;5039876;28;20032;-81
2021/06/11 07:30:09;;;;;;;10.82;8.48;;;23.30;82.20;;;;;;5041559;28;20125;-83
2021/06/11 07:32:35;;;;;;;13.40;8.10;;;23.40;81.70;;;;;;5043299;28;20033;-81
2021/06/11 07:35:01;;;;;;;12.27;8.48;;;23.60;81.10;;;;;;5042513;28;20091;-81
2021/06/11 07:37:26;;;;;;;8.30;7.50;;;23.70;81.00;;;;;;5048280;28;20349;-81
2021/06/11 07:39:52;;;;;;;12.65;7.70;;;23.80;81.80;;;;;;5035874;28;20057;-82
2021/06/11 07:42:18;;;;;;;17.95;9.30;;;23.80;80.60;;;;;;5041473;28;20045;-81
2021/06/11 07:44:44;;;;;;;11.68;8.35;;;24.00;79.70;;;;;;5050413;28;20041;-82
2021/06/11 07:47:10;;;;;;;10.07;8.48;;;24.00;80.20;;;;;;5036042;28;20277;-82
2021/06/11 07:49:36;;;;;;;11.40;8.23;;;24.10;78.90;;;;;;5049561;28;20038;-82
2021/06/11 07:52:02;;;;;;;14.85;7.15;;;24.20;79.10;;;;;;5043816;28;20030;-82
2021/06/11 07:54:28;;;;;;;8.70;7.80;;;24.40;79.60;;;;;;5047041;28;20660;-82
2021/06/11 07:56:53;;;;;;;11.40;7.50;;;24.50;76.20;;;;;;5051630;28;20037;-80
2021/06/11 07:59:21;;;;;;;9.20;7.93;;;24.70;78.70;;;;;;5041291;28;20341;-81
2021/06/11 08:01:46;;;;;;;9.70;7.53;;;24.90;78.00;;;;;;5050724;28;20049;-83
2021/06/11 08:04:12;;;;;;;8.45;7.65;;;25.10;77.80;;;;;;5046452;28;20063;-82
2021/06/11 08:06:38;;;;;;;8.07;6.78;;;25.20;76.90;;;;;;5040286;28;20036;-81
2021/06/11 08:09:04;;;;;;;10.43;7.93;;;25.40;77.70;;;;;;5043465;28;20037;-83
2021/06/11 08:11:29;;;;;;;11.15;7.68;;;25.50;74.80;;;;;;5046930;28;20041;-80
2021/06/11 08:13:55;;;;;;;8.57;7.68;;;25.60;74.80;;;;;;5040601;28;20091;-81
2021/06/11 08:16:20;;;;;;;9.60;7.85;;;25.70;75.90;;;;;;5051119;28;20539;-81
2021/06/11 08:18:46;;;;;;;7.38;6.68;;;25.80;75.50;;;;;;5048173;28;20040;-81
2021/06/11 08:21:11;;;;;;;8.23;6.95;;;25.90;76.10;;;;;;5042233;28;20041;-81
2021/06/11 08:23:37;;;;;;;7.55;6.22;;;25.90;76.50;;;;;;5034573;28;20120;-81
2021/06/11 08:26:02;;;;;;;11.00;6.85;;;25.90;74.70;;;;;;5037329;28;20494;-82
2021/06/11 08:28:32;;;;;;;8.07;7.20;;;25.90;73.00;;;;;;5042094;28;20033;-80
2021/06/11 08:30:58;;;;;;;12.15;7.53;;;25.90;73.20;;;;;;5056303;28;20336;-84
2021/06/11 08:33:23;;;;;;;8.25;7.25;;;25.90;74.00;;;;;;5052737;28;20112;-83
2021/06/11 08:35:49;;;;;;;12.90;7.20;;;26.00;74.40;;;;;;5055594;28;20049;-81
2021/06/11 08:38:14;;;;;;;6.20;5.60;;;26.00;74.40;;;;;;5057275;28;20056;-83
2021/06/11 08:40:41;;;;;;;11.85;7.97;;;26.10;75.30;;;;;;5070657;28;20395;-83
2021/06/11 08:43:06;;;;;;;12.45;7.38;;;26.20;72.70;;;;;;5060317;28;20048;-82
2021/06/11 08:45:33;;;;;;;10.18;6.75;;;26.30;71.70;;;;;;5065826;28;20036;-81
2021/06/11 08:47:59;;;;;;;13.18;6.88;;;26.30;73.80;;;;;;5047482;28;20112;-81
2021/06/11 08:50:27;;;;;;;10.90;7.15;;;26.30;71.00;;;;;;5046151;28;20175;-82
2021/06/11 08:52:54;;;;;;;8.38;5.75;;;26.30;71.00;;;;;;5057676;28;20079;-82
2021/06/11 08:55:21;;;;;;;6.78;6.00;;;26.30;74.00;;;;;;5047383;28;20709;-82
2021/06/11 08:57:47;;;;;;;7.28;6.55;;;26.50;71.30;;;;;;5043660;28;20103;-83
2021/06/11 09:00:13;;;;;;;8.68;6.45;;;26.50;72.10;;;;;;5044771;28;20072;-83
2021/06/11 09:03:11;;;;;;;7.85;6.57;;;26.60;71.80;;;;;;5051672;28;20041;-83
2021/06/11 09:05:45;;;;;;;8.10;7.13;;;26.80;71.40;;;;;;5048999;28;20033;-83
2021/06/11 09:08:21;;;;;;;9.00;6.60;;;26.90;70.90;;;;;;5047153;28;20037;-82
2021/06/11 09:10:49;;;;;;;7.75;6.53;;;27.00;70.10;;;;;;5048713;28;20041;-82
2021/06/11 09:13:27;;;;;;;9.05;6.35;;;27.10;70.20;;;;;;5046379;28;20033;-83
2021/06/11 09:16:25;;;;;;;10.90;6.47;;;27.10;71.40;;;;;;5042644;28;20053;-82
2021/06/11 09:19:04;;;;;;;8.82;7.15;;;27.10;71.40;;;;;;5047503;28;20056;-82
2021/06/11 09:21:51;;;;;;;9.10;6.18;;;27.20;71.90;;;;;;5044717;28;20378;-83
2021/06/11 09:24:23;;;;;;;10.60;7.47;;;27.30;71.70;;;;;;5043948;28;20148;-80
2021/06/11 09:27:02;;;;;;;8.63;7.25;;;27.40;69.40;;;;;;5044003;28;20040;-83
2021/06/11 09:29:34;;;;;;;9.48;6.97;;;27.50;70.70;;;;;;5043510;28;20351;-83
2021/06/11 09:32:18;;;;;;;6.35;5.75;;;27.40;69.80;;;;;;5046371;28;20041;-81
2021/06/11 09:34:46;;;;;;;8.93;6.35;;;27.50;70.80;;;;;;5049452;28;20113;-82
2021/06/11 09:37:20;;;;;;;8.75;5.20;;;27.60;69.00;;;;;;5048955;28;20083;-83
2021/06/11 09:39:52;;;;;;;5.63;4.85;;;27.60;68.70;;;;;;5047062;28;20448;-82
2021/06/11 09:42:19;;;;;;;;;;;27.80;66.80;;;;;;5043735;28;20045;-83
2021/06/11 09:44:57;;;;;;;5.97;5.38;;;27.90;65.60;;;;;;5043725;28;19916;-83
2021/06/11 09:47:33;;;;;;;8.70;5.32;;;28.00;65.80;;;;;;5049505;28;20297;-83
2021/06/11 09:50:19;;;;;;;5.20;4.70;;;27.90;64.40;;;;;;5045947;28;20048;-82
2021/06/11 09:52:57;;;;;;;7.07;4.90;;;27.80;67.50;;;;;;5050219;28;20033;-82
2021/06/11 09:55:31;;;;;;;9.23;4.97;;;27.70;64.90;;;;;;5048830;28;20045;-82
2021/06/11 09:58:07;;;;;;;5.07;4.57;;;27.70;64.70;;;;;;5047840;28;20475;-83
2021/06/11 10:00:39;;;;;;;5.93;4.35;;;27.50;66.10;;;;;;5047542;28;20053;-83
2021/06/11 10:03:11;;;;;;;4.65;4.05;;;27.70;64.40;;;;;;5053171;28;20040;-83
2021/06/11 10:05:38;;;;;;;33.70;4.95;;;27.70;65.70;;;;;;5043758;28;20144;-84
2021/06/11 10:08:04;;;;;;;5.80;4.28;;;27.60;64.20;;;;;;5045346;28;20081;-84
2021/06/11 10:10:29;;;;;;;4.90;4.05;;;27.60;66.40;;;;;;5039224;28;20041;-83
2021/06/11 10:12:55;;;;;;;4.38;3.65;;;27.80;65.00;;;;;;5043428;28;20052;-84
2021/06/11 10:15:21;;;;;;;7.40;4.20;;;27.90;65.80;;;;;;5045016;28;20045;-84
2021/06/11 10:17:46;;;;;;;4.85;4.35;;;28.00;63.80;;;;;;5048975;28;20649;-83
2021/06/11 10:20:13;;;;;;;4.60;4.10;;;28.20;63.20;;;;;;5043383;28;20044;-83
2021/06/11 10:22:40;;;;;;;9.52;4.30;;;28.40;65.00;;;;;;5045371;28;20124;-85
2021/06/11 10:25:12;;;;;;;5.68;4.18;;;28.60;63.70;;;;;;5044942;28;20078;-83
2021/06/11 10:27:41;;;;;;;4.90;4.07;;;28.60;61.30;;;;;;5046802;28;20063;-82
2021/06/11 10:30:08;;;;;;;4.05;3.65;;;28.50;61.10;;;;;;5046742;28;20344;-83
2021/06/11 10:32:39;;;;;;;8.18;5.10;;;28.40;62.40;;;;;;5037502;28;20041;-83
2021/06/11 10:35:05;;;;;;;5.28;4.78;;;28.30;63.90;;;;;;5040079;28;20053;-85
2021/06/11 10:37:40;;;;;;;5.90;4.75;;;28.30;60.80;;;;;;5042964;28;20372;-83
2021/06/11 10:40:39;;;;;;;7.05;4.90;;;28.40;60.90;;;;;;5046304;28;20052;-84
2021/06/11 10:43:24;;;;;;;5.95;4.55;;;28.40;60.60;;;;;;5032743;28;20515;-84
2021/06/11 10:45:51;;;;;;;5.55;4.55;;;28.50;59.50;;;;;;5045750;28;20104;-85
2021/06/11 10:48:18;;;;;;;5.45;4.18;;;28.60;63.40;;;;;;5043498;28;20037;-85
2021/06/11 10:50:44;;;;;;;6.80;4.35;;;28.70;59.50;;;;;;5044306;28;20051;-84
2021/06/11 10:53:33;;;;;;;5.32;3.63;;;28.80;63.50;;;;;;5043634;28;20579;-85
2021/06/11 10:56:25;;;;;;;6.72;4.50;;;28.90;65.70;;;;;;5045117;28;20374;-84
2021/06/11 10:58:54;;;;;;;4.50;4.07;;;29.10;61.70;;;;;;5044796;28;20052;-85
2021/06/11 11:01:28;;;;;;;6.07;4.45;;;29.20;61.70;;;;;;5061853;28;20045;-85
2021/06/11 11:04:25;;;;;;;7.13;3.80;;;29.30;59.60;;;;;;5045563;28;20056;-84
2021/06/11 11:06:54;;;;;;;5.57;4.25;;;29.30;57.50;;;;;;5043614;28;20103;-84
2021/06/11 11:09:40;;;;;;;4.82;4.38;;;29.20;56.70;;;;;;5053564;28;20041;-83
2021/06/11 11:12:19;;;;;;;3.67;3.38;;;29.00;58.10;;;;;;5033999;28;20095;-85
2021/06/11 11:14:51;;;;;;;5.88;3.35;;;28.90;58.50;;;;;;5044054;28;20037;-85
2021/06/11 11:17:22;;;;;;;3.60;3.30;;;29.00;58.70;;;;;;5050727;28;20041;-83
2021/06/11 11:19:52;;;;;;;4.22;3.75;;;29.00;61.30;;;;;;5033786;28;20038;-84
2021/06/11 11:22:26;;;;;;;8.88;3.85;;;29.00;58.80;;;;;;5048319;28;20029;-84
2021/06/11 11:24:53;;;;;;;4.07;3.67;;;29.00;58.30;;;;;;5040888;28;20301;-85
2021/06/11 11:27:21;;;;;;;4.82;2.58;;;28.90;57.90;;;;;;5041635;28;20037;-85
2021/06/11 11:29:47;;;;;;;4.72;3.20;;;28.90;59.10;;;;;;5067149;28;20044;-84
2021/06/11 11:32:15;;;;;;;4.95;3.88;;;29.10;57.00;;;;;;5056459;28;20325;-85
2021/06/11 11:34:40;;;;;;;7.05;2.90;;;29.10;56.90;;;;;;5048701;28;20037;-86
2021/06/11 11:37:06;;;;;;;5.20;2.90;;;29.20;56.30;;;;;;5044375;28;20487;-83
2021/06/11 11:39:32;;;;;;;3.45;3.08;;;29.20;56.90;;;;;;5033041;28;20038;-85
2021/06/11 11:41:58;;;;;;;5.10;3.30;;;29.10;55.90;;;;;;5038865;28;20036;-85
2021/06/11 11:44:26;;;;;;;13.75;3.35;;;29.00;58.30;;;;;;5058850;28;20045;-85
2021/06/11 11:46:54;;;;;;;5.45;2.90;;;28.90;58.00;;;;;;5040289;28;20136;-85
2021/06/11 11:49:20;;;;;;;2.75;2.30;;;28.90;57.10;;;;;;5046018;28;20032;-85
2021/06/11 11:51:46;;;;;;;7.35;2.47;;;29.00;59.20;;;;;;5046584;28;20048;-84
2021/06/11 11:54:12;;;;;;;4.25;3.13;;;29.10;56.80;;;;;;5039448;28;20045;-84
2021/06/11 11:56:37;;;;;;;5.97;3.00;;;29.10;55.80;;;;;;5043054;28;20043;-87
2021/06/11 11:59:06;;;;;;;3.95;2.70;;;29.00;56.80;;;;;;5037820;28;20186;-85
2021/06/11 12:01:36;;;;;;;3.25;2.95;;;28.90;57.00;;;;;;5051777;28;20048;-88
2021/06/11 12:04:02;;;;;;;3.03;2.67;;;28.90;58.70;;;;;;5050118;28;20044;-86
2021/06/11 12:06:46;;;;;;;3.28;2.80;;;29.00;57.50;;;;;;5048988;28;20033;-95
2021/06/11 12:09:12;;;;;;;4.75;3.03;;;29.30;57.80;;;;;;5051104;28;20041;-83
2021/06/11 12:11:38;;;;;;;3.60;2.22;;;29.40;55.70;;;;;;5048595;28;20033;-82
2021/06/11 12:14:04;;;;;;;4.07;2.40;;;29.40;55.70;;;;;;5041046;28;20278;-82
2021/06/11 12:16:31;;;;;;;3.40;2.03;;;29.30;56.50;;;;;;5042262;28;20120;-81
2021/06/11 12:18:57;;;;;;;5.05;2.50;;;29.30;56.50;;;;;;5044663;28;20033;-81
2021/06/11 12:21:22;;;;;;;8.60;2.33;;;29.30;55.80;;;;;;5057529;28;20129;-80
2021/06/11 12:23:49;;;;;;;3.15;2.38;;;29.40;54.50;;;;;;5057236;28;20356;-81
2021/06/11 12:26:14;;;;;;;3.70;1.73;;;29.40;56.50;;;;;;5058438;28;20032;-81
2021/06/11 12:28:40;;;;;;;2.38;1.88;;;29.40;55.30;;;;;;5054774;28;20146;-81
2021/06/11 12:31:06;;;;;;;2.85;1.75;;;29.40;54.40;;;;;;5057005;28;20033;-80
2021/06/11 12:33:31;;;;;;;1.98;1.77;;;29.40;58.60;;;;;;5056071;28;20032;-82
2021/06/11 12:35:57;;;;;;;3.92;2.67;;;29.50;55.40;;;;;;5056960;28;20442;-81
2021/06/11 12:38:22;;;;;;;2.67;2.15;;;29.60;55.70;;;;;;5056028;28;20044;-81
2021/06/11 12:40:49;;;;;;;1.40;1.27;;;29.60;54.00;;;;;;5053445;28;20036;-81
2021/06/11 12:43:19;;;;;;;1.65;1.40;;;29.80;57.60;;;;;;5046916;28;20045;-81
2021/06/11 12:45:45;;;;;;;2.30;1.77;;;30.00;54.90;;;;;;5044331;28;20049;-81
2021/06/11 12:48:11;;;;;;;3.95;1.90;;;30.30;54.00;;;;;;5038876;28;20021;-80